sensor_id;sensor_type;location;lat;lon;timestamp;temperature;humidity
14016;DHT22;7083;48.854;9.158;2023-06-04T00:02:00;12.50;99.90
14016;DHT22;7083;48.854;9.158;2023-06-04T00:04:26;12.30;99.90
14016;DHT22;7083;48.854;9.158;2023-06-04T00:06:54;12.20;99.90
14016;DHT22;7083;48.854;9.158;2023-06-04T00:09:21;12.20;99.90
14016;DHT22;7083;48.854;9.158;2023-06-04T00:11:47;12.20;99.90
14016;DHT22;7083;48.854;9.158;2023-06-04T00:14:14;12.10;99.90
14016;DHT22;7083;48.854;9.158;2023-06-04T00:16:41;12.10;99.90
14016;DHT22;7083;48.854;9.158;2023-06-04T00:19:09;12.10;99.90
14016;DHT22;7083;48.854;9.158;2023-06-04T00:21:36;12.00;99.90
14016;DHT22;7083;48.854;9.158;2023-06-04T00:24:03;12.10;99.90
14016;DHT22;7083;48.854;9.158;2023-06-04T00:26:29;12.10;99.90
14016;DHT22;7083;48.854;9.158;2023-06-04T00:28:56;12.10;99.90
14016;DHT22;7083;48.854;9.158;2023-06-04T00:31:23;12.00;99.90
14016;DHT22;7083;48.854;9.158;2023-06-04T00:33:50;12.00;99.90
14016;DHT22;7083;48.854;9.158;2023-06-04T00:36:18;12.00;99.90
14016;DHT22;7083;48.854;9.158;2023-06-04T00:38:45;11.90;99.90
14016;DHT22;7083;48.854;9.158;2023-06-04T00:41:12;11.90;99.90
14016;DHT22;7083;48.854;9.158;2023-06-04T00:43:39;11.90;99.90
14016;DHT22;7083;48.854;9.158;2023-06-04T00:46:06;11.80;99.90
14016;DHT22;7083;48.854;9.158;2023-06-04T00:48:33;11.80;99.90
14016;DHT22;7083;48.854;9.158;2023-06-04T00:51:03;11.80;99.90
14016;DHT22;7083;48.854;9.158;2023-06-04T00:53:31;11.80;99.90
14016;DHT22;7083;48.854;9.158;2023-06-04T00:55:58;11.70;99.90
14016;DHT22;7083;48.854;9.158;2023-06-04T00:58:25;11.70;99.90
14016;DHT22;7083;48.854;9.158;2023-06-04T01:00:54;11.70;99.90
14016;DHT22;7083;48.854;9.158;2023-06-04T01:03:25;11.60;99.90
14016;DHT22;7083;48.854;9.158;2023-06-04T01:05:59;11.50;99.90
14016;DHT22;7083;48.854;9.158;2023-06-04T01:08:27;11.50;99.90
14016;DHT22;7083;48.854;9.158;2023-06-04T01:10:55;11.50;99.90
14016;DHT22;7083;48.854;9.158;2023-06-04T01:13:24;11.40;99.90
14016;DHT22;7083;48.854;9.158;2023-06-04T01:15:50;11.40;99.90
14016;DHT22;7083;48.854;9.158;2023-06-04T01:18:25;11.30;99.90
14016;DHT22;7083;48.854;9.158;2023-06-04T01:20:58;11.30;99.90
14016;DHT22;7083;48.854;9.158;2023-06-04T01:23:31;11.20;99.90
14016;DHT22;7083;48.854;9.158;2023-06-04T01:26:02;11.10;99.90
14016;DHT22;7083;48.854;9.158;2023-06-04T01:28:29;11.10;99.90
14016;DHT22;7083;48.854;9.158;2023-06-04T01:30:56;11.00;99.90
14016;DHT22;7083;48.854;9.158;2023-06-04T01:33:25;11.00;99.90
14016;DHT22;7083;48.854;9.158;2023-06-04T01:35:52;11.00;99.90
14016;DHT22;7083;48.854;9.158;2023-06-04T01:38:19;10.90;99.90
14016;DHT22;7083;48.854;9.158;2023-06-04T01:40:46;10.90;99.90
14016;DHT22;7083;48.854;9.158;2023-06-04T01:43:14;10.80;99.90
14016;DHT22;7083;48.854;9.158;2023-06-04T01:45:41;10.80;99.90
14016;DHT22;7083;48.854;9.158;2023-06-04T01:48:07;10.80;99.90
14016;DHT22;7083;48.854;9.158;2023-06-04T01:50:34;10.70;99.90
14016;DHT22;7083;48.854;9.158;2023-06-04T01:53:01;10.70;99.90
14016;DHT22;7083;48.854;9.158;2023-06-04T01:55:27;10.70;99.90
14016;DHT22;7083;48.854;9.158;2023-06-04T01:57:59;10.70;99.90
14016;DHT22;7083;48.854;9.158;2023-06-04T02:00:27;10.60;99.90
14016;DHT22;7083;48.854;9.158;2023-06-04T02:02:54;10.60;99.90
14016;DHT22;7083;48.854;9.158;2023-06-04T02:05:21;10.60;99.90
14016;DHT22;7083;48.854;9.158;2023-06-04T02:07:48;10.60;99.90
14016;DHT22;7083;48.854;9.158;2023-06-04T02:10:16;10.50;99.90
14016;DHT22;7083;48.854;9.158;2023-06-04T02:12:53;10.50;99.90
14016;DHT22;7083;48.854;9.158;2023-06-04T02:15:21;10.50;99.90
14016;DHT22;7083;48.854;9.158;2023-06-04T02:17:50;10.40;99.90
14016;DHT22;7083;48.854;9.158;2023-06-04T02:20:17;10.40;99.90
14016;DHT22;7083;48.854;9.158;2023-06-04T02:22:43;10.40;99.90
14016;DHT22;7083;48.854;9.158;2023-06-04T02:25:10;10.40;99.90
14016;DHT22;7083;48.854;9.158;2023-06-04T02:27:37;10.40;99.90
14016;DHT22;7083;48.854;9.158;2023-06-04T02:30:04;10.40;99.90
14016;DHT22;7083;48.854;9.158;2023-06-04T02:32:32;10.30;99.90
14016;DHT22;7083;48.854;9.158;2023-06-04T02:35:03;10.30;99.90
14016;DHT22;7083;48.854;9.158;2023-06-04T02:37:29;10.30;99.90
14016;DHT22;7083;48.854;9.158;2023-06-04T02:39:56;10.30;99.90
14016;DHT22;7083;48.854;9.158;2023-06-04T02:42:23;10.30;99.90
14016;DHT22;7083;48.854;9.158;2023-06-04T02:44:50;10.20;99.90
14016;DHT22;7083;48.854;9.158;2023-06-04T02:47:16;10.20;99.90
14016;DHT22;7083;48.854;9.158;2023-06-04T02:49:44;10.20;99.90
14016;DHT22;7083;48.854;9.158;2023-06-04T02:52:13;10.10;99.90
14016;DHT22;7083;48.854;9.158;2023-06-04T02:54:39;10.10;99.90
14016;DHT22;7083;48.854;9.158;2023-06-04T02:57:06;10.10;99.90
14016;DHT22;7083;48.854;9.158;2023-06-04T02:59:33;10.00;99.90
14016;DHT22;7083;48.854;9.158;2023-06-04T03:02:00;10.10;99.90
14016;DHT22;7083;48.854;9.158;2023-06-04T03:04:27;10.00;99.90
14016;DHT22;7083;48.854;9.158;2023-06-04T03:06:59;10.00;99.90
14016;DHT22;7083;48.854;9.158;2023-06-04T03:09:28;10.00;99.90
14016;DHT22;7083;48.854;9.158;2023-06-04T03:11:56;10.00;99.90
14016;DHT22;7083;48.854;9.158;2023-06-04T03:14:23;10.00;99.90
14016;DHT22;7083;48.854;9.158;2023-06-04T03:16:58;10.00;99.90
14016;DHT22;7083;48.854;9.158;2023-06-04T03:19:33;10.00;99.90
14016;DHT22;7083;48.854;9.158;2023-06-04T03:21:59;10.00;99.90
14016;DHT22;7083;48.854;9.158;2023-06-04T03:24:33;10.00;99.90
14016;DHT22;7083;48.854;9.158;2023-06-04T03:27:00;10.00;99.90
14016;DHT22;7083;48.854;9.158;2023-06-04T03:29:27;9.90;99.90
14016;DHT22;7083;48.854;9.158;2023-06-04T03:31:53;9.90;99.90
14016;DHT22;7083;48.854;9.158;2023-06-04T03:34:20;9.90;99.90
14016;DHT22;7083;48.854;9.158;2023-06-04T03:36:50;9.90;99.90
14016;DHT22;7083;48.854;9.158;2023-06-04T03:39:17;9.90;99.90
14016;DHT22;7083;48.854;9.158;2023-06-04T03:41:45;9.90;99.90
14016;DHT22;7083;48.854;9.158;2023-06-04T03:44:12;9.80;99.90
14016;DHT22;7083;48.854;9.158;2023-06-04T03:46:40;9.90;99.90
14016;DHT22;7083;48.854;9.158;2023-06-04T03:49:07;9.90;99.90
14016;DHT22;7083;48.854;9.158;2023-06-04T03:51:33;9.90;99.90
14016;DHT22;7083;48.854;9.158;2023-06-04T03:54:00;10.00;99.90
14016;DHT22;7083;48.854;9.158;2023-06-04T03:56:27;10.00;99.90
14016;DHT22;7083;48.854;9.158;2023-06-04T03:58:55;10.10;99.90
14016;DHT22;7083;48.854;9.158;2023-06-04T04:01:22;10.10;99.90
14016;DHT22;7083;48.854;9.158;2023-06-04T04:03:49;10.10;99.90
14016;DHT22;7083;48.854;9.158;2023-06-04T04:06:16;10.20;99.90
14016;DHT22;7083;48.854;9.158;2023-06-04T04:08:44;10.20;99.90
14016;DHT22;7083;48.854;9.158;2023-06-04T04:11:11;10.20;99.90
14016;DHT22;7083;48.854;9.158;2023-06-04T04:13:38;10.20;99.90
14016;DHT22;7083;48.854;9.158;2023-06-04T04:16:06;10.30;99.90
14016;DHT22;7083;48.854;9.158;2023-06-04T04:18:33;10.30;99.90
14016;DHT22;7083;48.854;9.158;2023-06-04T04:21:00;10.30;99.90
14016;DHT22;7083;48.854;9.158;2023-06-04T04:23:28;10.40;99.90
14016;DHT22;7083;48.854;9.158;2023-06-04T04:25:55;10.40;99.90
14016;DHT22;7083;48.854;9.158;2023-06-04T04:28:24;10.50;99.90
14016;DHT22;7083;48.854;9.158;2023-06-04T04:30:54;10.50;99.90
14016;DHT22;7083;48.854;9.158;2023-06-04T04:33:23;10.60;99.90
14016;DHT22;7083;48.854;9.158;2023-06-04T04:35:51;10.70;99.90
14016;DHT22;7083;48.854;9.158;2023-06-04T04:38:17;10.80;99.90
14016;DHT22;7083;48.854;9.158;2023-06-04T04:40:44;10.90;99.90
14016;DHT22;7083;48.854;9.158;2023-06-04T04:43:13;11.00;99.90
14016;DHT22;7083;48.854;9.158;2023-06-04T04:45:39;11.00;99.90
14016;DHT22;7083;48.854;9.158;2023-06-04T04:48:06;11.10;99.90
14016;DHT22;7083;48.854;9.158;2023-06-04T04:50:34;11.10;99.90
14016;DHT22;7083;48.854;9.158;2023-06-04T04:53:01;11.20;99.90
14016;DHT22;7083;48.854;9.158;2023-06-04T04:55:27;11.30;99.90
14016;DHT22;7083;48.854;9.158;2023-06-04T04:57:54;11.30;99.90
14016;DHT22;7083;48.854;9.158;2023-06-04T05:00:21;11.40;99.90
14016;DHT22;7083;48.854;9.158;2023-06-04T05:02:47;11.40;99.90
14016;DHT22;7083;48.854;9.158;2023-06-04T05:05:14;11.50;99.90
14016;DHT22;7083;48.854;9.158;2023-06-04T05:07:42;11.50;99.90
14016;DHT22;7083;48.854;9.158;2023-06-04T05:10:09;11.60;99.90
14016;DHT22;7083;48.854;9.158;2023-06-04T05:12:36;11.70;99.90
14016;DHT22;7083;48.854;9.158;2023-06-04T05:15:03;11.80;99.90
14016;DHT22;7083;48.854;9.158;2023-06-04T05:17:29;11.90;99.90
14016;DHT22;7083;48.854;9.158;2023-06-04T05:19:56;11.90;99.90
14016;DHT22;7083;48.854;9.158;2023-06-04T05:22:30;12.00;99.90
14016;DHT22;7083;48.854;9.158;2023-06-04T05:24:59;12.10;99.90
14016;DHT22;7083;48.854;9.158;2023-06-04T05:27:26;12.10;99.90
14016;DHT22;7083;48.854;9.158;2023-06-04T05:29:53;12.20;99.90
14016;DHT22;7083;48.854;9.158;2023-06-04T05:32:20;12.30;99.90
14016;DHT22;7083;48.854;9.158;2023-06-04T05:34:48;12.40;99.90
14016;DHT22;7083;48.854;9.158;2023-06-04T05:37:15;12.50;99.90
14016;DHT22;7083;48.854;9.158;2023-06-04T05:39:42;12.50;99.90
14016;DHT22;7083;48.854;9.158;2023-06-04T05:42:10;12.60;99.90
14016;DHT22;7083;48.854;9.158;2023-06-04T05:44:37;12.70;98.30
14016;DHT22;7083;48.854;9.158;2023-06-04T05:47:04;12.80;97.80
14016;DHT22;7083;48.854;9.158;2023-06-04T05:49:30;12.90;97.70
14016;DHT22;7083;48.854;9.158;2023-06-04T05:51:57;13.10;97.40
14016;DHT22;7083;48.854;9.158;2023-06-04T05:54:24;13.20;97.60
14016;DHT22;7083;48.854;9.158;2023-06-04T05:56:50;13.30;97.50
14016;DHT22;7083;48.854;9.158;2023-06-04T05:59:18;13.40;95.40
14016;DHT22;7083;48.854;9.158;2023-06-04T06:01:45;13.50;95.60
14016;DHT22;7083;48.854;9.158;2023-06-04T06:04:13;13.60;94.90
14016;DHT22;7083;48.854;9.158;2023-06-04T06:06:39;13.70;93.90
14016;DHT22;7083;48.854;9.158;2023-06-04T06:09:09;13.80;93.60
14016;DHT22;7083;48.854;9.158;2023-06-04T06:11:36;13.90;93.00
14016;DHT22;7083;48.854;9.158;2023-06-04T06:14:02;14.00;93.40
14016;DHT22;7083;48.854;9.158;2023-06-04T06:16:30;14.10;93.70
14016;DHT22;7083;48.854;9.158;2023-06-04T06:18:57;14.30;94.00
14016;DHT22;7083;48.854;9.158;2023-06-04T06:21:24;14.50;92.30
14016;DHT22;7083;48.854;9.158;2023-06-04T06:23:51;14.70;91.40
14016;DHT22;7083;48.854;9.158;2023-06-04T06:26:18;14.90;90.80
14016;DHT22;7083;48.854;9.158;2023-06-04T06:28:45;15.20;90.20
14016;DHT22;7083;48.854;9.158;2023-06-04T06:31:11;15.50;90.40
14016;DHT22;7083;48.854;9.158;2023-06-04T06:33:39;15.70;89.10
14016;DHT22;7083;48.854;9.158;2023-06-04T06:36:07;15.90;87.50
14016;DHT22;7083;48.854;9.158;2023-06-04T06:38:33;16.20;87.90
14016;DHT22;7083;48.854;9.158;2023-06-04T06:41:00;16.40;84.00
14016;DHT22;7083;48.854;9.158;2023-06-04T06:43:26;16.50;82.40
14016;DHT22;7083;48.854;9.158;2023-06-04T06:45:53;16.50;82.30
14016;DHT22;7083;48.854;9.158;2023-06-04T06:48:20;16.50;82.80
14016;DHT22;7083;48.854;9.158;2023-06-04T06:50:48;16.60;82.10
14016;DHT22;7083;48.854;9.158;2023-06-04T06:53:14;16.60;81.10
14016;DHT22;7083;48.854;9.158;2023-06-04T06:55:41;16.60;78.60
14016;DHT22;7083;48.854;9.158;2023-06-04T06:58:07;16.60;78.20
14016;DHT22;7083;48.854;9.158;2023-06-04T07:00:34;16.60;76.30
14016;DHT22;7083;48.854;9.158;2023-06-04T07:03:01;16.60;78.10
14016;DHT22;7083;48.854;9.158;2023-06-04T07:05:28;16.70;79.90
14016;DHT22;7083;48.854;9.158;2023-06-04T07:07:56;16.70;81.00
14016;DHT22;7083;48.854;9.158;2023-06-04T07:10:24;16.70;81.10
14016;DHT22;7083;48.854;9.158;2023-06-04T07:12:51;16.80;82.50
14016;DHT22;7083;48.854;9.158;2023-06-04T07:15:17;16.90;81.70
14016;DHT22;7083;48.854;9.158;2023-06-04T07:17:44;17.00;81.10
14016;DHT22;7083;48.854;9.158;2023-06-04T07:20:11;17.20;79.10
14016;DHT22;7083;48.854;9.158;2023-06-04T07:22:38;17.30;77.70
14016;DHT22;7083;48.854;9.158;2023-06-04T07:25:07;17.50;79.20
14016;DHT22;7083;48.854;9.158;2023-06-04T07:27:33;17.70;77.30
14016;DHT22;7083;48.854;9.158;2023-06-04T07:30:00;17.80;76.60
14016;DHT22;7083;48.854;9.158;2023-06-04T07:32:27;17.90;76.30
14016;DHT22;7083;48.854;9.158;2023-06-04T07:34:53;18.00;77.00
14016;DHT22;7083;48.854;9.158;2023-06-04T07:37:20;18.10;75.60
14016;DHT22;7083;48.854;9.158;2023-06-04T07:39:47;18.30;77.20
14016;DHT22;7083;48.854;9.158;2023-06-04T07:42:15;18.40;78.20
14016;DHT22;7083;48.854;9.158;2023-06-04T07:44:41;18.50;78.50
14016;DHT22;7083;48.854;9.158;2023-06-04T07:47:08;18.60;79.20
14016;DHT22;7083;48.854;9.158;2023-06-04T07:49:35;18.70;78.90
14016;DHT22;7083;48.854;9.158;2023-06-04T07:52:02;18.80;78.80
14016;DHT22;7083;48.854;9.158;2023-06-04T07:54:28;18.90;80.00
14016;DHT22;7083;48.854;9.158;2023-06-04T07:56:55;19.10;74.40
14016;DHT22;7083;48.854;9.158;2023-06-04T07:59:24;19.00;73.90
14016;DHT22;7083;48.854;9.158;2023-06-04T08:01:51;19.00;73.90
14016;DHT22;7083;48.854;9.158;2023-06-04T08:04:17;19.00;75.40
14016;DHT22;7083;48.854;9.158;2023-06-04T08:06:44;18.90;76.40
14016;DHT22;7083;48.854;9.158;2023-06-04T08:09:12;18.90;76.10
14016;DHT22;7083;48.854;9.158;2023-06-04T08:11:40;18.90;75.00
14016;DHT22;7083;48.854;9.158;2023-06-04T08:14:07;18.90;75.10
14016;DHT22;7083;48.854;9.158;2023-06-04T08:16:35;18.90;75.40
14016;DHT22;7083;48.854;9.158;2023-06-04T08:19:02;18.90;75.40
14016;DHT22;7083;48.854;9.158;2023-06-04T08:21:29;19.00;75.80
14016;DHT22;7083;48.854;9.158;2023-06-04T08:23:55;19.00;75.20
14016;DHT22;7083;48.854;9.158;2023-06-04T08:26:22;19.10;73.80
14016;DHT22;7083;48.854;9.158;2023-06-04T08:28:49;19.20;72.10
14016;DHT22;7083;48.854;9.158;2023-06-04T08:31:16;19.10;72.50
14016;DHT22;7083;48.854;9.158;2023-06-04T08:33:44;19.10;72.00
14016;DHT22;7083;48.854;9.158;2023-06-04T08:36:11;19.20;72.00
14016;DHT22;7083;48.854;9.158;2023-06-04T08:38:38;19.20;73.70
14016;DHT22;7083;48.854;9.158;2023-06-04T08:41:12;19.30;74.10
14016;DHT22;7083;48.854;9.158;2023-06-04T08:43:39;19.30;73.80
14016;DHT22;7083;48.854;9.158;2023-06-04T08:46:08;19.50;75.90
14016;DHT22;7083;48.854;9.158;2023-06-04T08:48:36;19.50;73.60
14016;DHT22;7083;48.854;9.158;2023-06-04T08:51:06;19.70;72.60
14016;DHT22;7083;48.854;9.158;2023-06-04T08:53:34;19.70;71.40
14016;DHT22;7083;48.854;9.158;2023-06-04T08:56:01;19.70;71.10
14016;DHT22;7083;48.854;9.158;2023-06-04T08:58:31;19.80;70.00
14016;DHT22;7083;48.854;9.158;2023-06-04T09:00:58;19.80;71.20
14016;DHT22;7083;48.854;9.158;2023-06-04T09:03:25;19.80;71.60
14016;DHT22;7083;48.854;9.158;2023-06-04T09:05:52;19.90;71.80
14016;DHT22;7083;48.854;9.158;2023-06-04T09:08:23;20.00;70.70
14016;DHT22;7083;48.854;9.158;2023-06-04T09:10:50;20.10;70.20
14016;DHT22;7083;48.854;9.158;2023-06-04T09:13:22;20.20;73.10
14016;DHT22;7083;48.854;9.158;2023-06-04T09:15:58;20.20;73.50
14016;DHT22;7083;48.854;9.158;2023-06-04T09:18:25;20.40;72.30
14016;DHT22;7083;48.854;9.158;2023-06-04T09:21:00;20.50;72.40
14016;DHT22;7083;48.854;9.158;2023-06-04T09:23:29;20.60;70.00
14016;DHT22;7083;48.854;9.158;2023-06-04T09:26:06;20.60;70.10
14016;DHT22;7083;48.854;9.158;2023-06-04T09:28:33;20.60;70.10
14016;DHT22;7083;48.854;9.158;2023-06-04T09:31:00;20.70;69.80
14016;DHT22;7083;48.854;9.158;2023-06-04T09:33:27;20.70;69.20
14016;DHT22;7083;48.854;9.158;2023-06-04T09:35:55;20.70;68.50
14016;DHT22;7083;48.854;9.158;2023-06-04T09:38:21;20.80;67.80
14016;DHT22;7083;48.854;9.158;2023-06-04T09:40:50;20.90;67.90
14016;DHT22;7083;48.854;9.158;2023-06-04T09:43:22;21.00;67.00
14016;DHT22;7083;48.854;9.158;2023-06-04T09:45:49;21.00;67.70
14016;DHT22;7083;48.854;9.158;2023-06-04T09:48:20;21.10;65.60
14016;DHT22;7083;48.854;9.158;2023-06-04T09:50:47;21.20;65.00
14016;DHT22;7083;48.854;9.158;2023-06-04T09:53:14;21.30;66.70
14016;DHT22;7083;48.854;9.158;2023-06-04T09:55:42;21.30;67.30
14016;DHT22;7083;48.854;9.158;2023-06-04T09:58:10;21.30;65.90
14016;DHT22;7083;48.854;9.158;2023-06-04T10:00:37;21.40;65.70
14016;DHT22;7083;48.854;9.158;2023-06-04T10:03:05;21.40;65.40
14016;DHT22;7083;48.854;9.158;2023-06-04T10:05:33;21.50;66.50
14016;DHT22;7083;48.854;9.158;2023-06-04T10:08:02;21.60;65.60
14016;DHT22;7083;48.854;9.158;2023-06-04T10:10:29;21.70;65.90
14016;DHT22;7083;48.854;9.158;2023-06-04T10:13:00;21.60;63.90
14016;DHT22;7083;48.854;9.158;2023-06-04T10:15:31;21.60;64.00
14016;DHT22;7083;48.854;9.158;2023-06-04T10:17:59;21.80;62.70
14016;DHT22;7083;48.854;9.158;2023-06-04T10:20:28;21.90;64.70
14016;DHT22;7083;48.854;9.158;2023-06-04T10:22:55;22.00;62.90
14016;DHT22;7083;48.854;9.158;2023-06-04T10:25:22;22.10;61.30
14016;DHT22;7083;48.854;9.158;2023-06-04T10:27:50;22.20;61.50
14016;DHT22;7083;48.854;9.158;2023-06-04T10:30:17;22.30;61.50
14016;DHT22;7083;48.854;9.158;2023-06-04T10:32:46;22.40;62.30
14016;DHT22;7083;48.854;9.158;2023-06-04T10:35:13;22.40;61.30
14016;DHT22;7083;48.854;9.158;2023-06-04T10:37:41;22.40;60.70
14016;DHT22;7083;48.854;9.158;2023-06-04T10:40:08;22.50;60.00
14016;DHT22;7083;48.854;9.158;2023-06-04T10:42:40;22.50;60.60
14016;DHT22;7083;48.854;9.158;2023-06-04T10:45:09;22.50;60.00
14016;DHT22;7083;48.854;9.158;2023-06-04T10:47:36;22.60;60.90
14016;DHT22;7083;48.854;9.158;2023-06-04T10:50:11;22.60;61.00
14016;DHT22;7083;48.854;9.158;2023-06-04T10:52:50;22.60;62.30
14016;DHT22;7083;48.854;9.158;2023-06-04T10:55:16;22.70;60.60
14016;DHT22;7083;48.854;9.158;2023-06-04T10:57:51;22.80;59.10
14016;DHT22;7083;48.854;9.158;2023-06-04T11:00:18;22.90;59.80
14016;DHT22;7083;48.854;9.158;2023-06-04T11:02:52;23.00;59.10
14016;DHT22;7083;48.854;9.158;2023-06-04T11:05:22;23.10;58.50
14016;DHT22;7083;48.854;9.158;2023-06-04T11:07:59;23.10;57.60
14016;DHT22;7083;48.854;9.158;2023-06-04T11:10:31;23.10;57.80
14016;DHT22;7083;48.854;9.158;2023-06-04T11:12:59;23.30;56.50
14016;DHT22;7083;48.854;9.158;2023-06-04T11:15:25;23.40;57.40
14016;DHT22;7083;48.854;9.158;2023-06-04T11:17:53;23.60;57.80
14016;DHT22;7083;48.854;9.158;2023-06-04T11:20:22;23.70;58.30
14016;DHT22;7083;48.854;9.158;2023-06-04T11:22:54;23.80;57.30
14016;DHT22;7083;48.854;9.158;2023-06-04T11:25:22;23.90;58.00
14016;DHT22;7083;48.854;9.158;2023-06-04T11:27:53;24.10;58.10
14016;DHT22;7083;48.854;9.158;2023-06-04T11:30:20;24.30;57.10
14016;DHT22;7083;48.854;9.158;2023-06-04T11:32:48;24.50;56.40
14016;DHT22;7083;48.854;9.158;2023-06-04T11:35:14;24.60;55.20
14016;DHT22;7083;48.854;9.158;2023-06-04T11:37:52;24.60;54.90
14016;DHT22;7083;48.854;9.158;2023-06-04T11:40:20;24.60;54.60
14016;DHT22;7083;48.854;9.158;2023-06-04T11:42:47;24.60;54.80
14016;DHT22;7083;48.854;9.158;2023-06-04T11:45:15;24.80;55.20
14016;DHT22;7083;48.854;9.158;2023-06-04T11:47:44;25.00;54.90
14016;DHT22;7083;48.854;9.158;2023-06-04T11:50:11;25.10;54.80
14016;DHT22;7083;48.854;9.158;2023-06-04T11:52:38;25.20;53.60
14016;DHT22;7083;48.854;9.158;2023-06-04T11:55:08;25.30;51.00
14016;DHT22;7083;48.854;9.158;2023-06-04T11:57:35;25.30;52.90
14016;DHT22;7083;48.854;9.158;2023-06-04T12:00:02;25.50;53.50
14016;DHT22;7083;48.854;9.158;2023-06-04T12:02:33;25.80;54.60
14016;DHT22;7083;48.854;9.158;2023-06-04T12:05:10;26.10;53.50
14016;DHT22;7083;48.854;9.158;2023-06-04T12:07:37;26.40;52.00
14016;DHT22;7083;48.854;9.158;2023-06-04T12:10:07;26.60;51.20
14016;DHT22;7083;48.854;9.158;2023-06-04T12:12:34;26.80;51.60
14016;DHT22;7083;48.854;9.158;2023-06-04T12:15:01;26.90;50.00
14016;DHT22;7083;48.854;9.158;2023-06-04T12:17:29;26.90;48.10
14016;DHT22;7083;48.854;9.158;2023-06-04T12:19:55;27.00;50.10
14016;DHT22;7083;48.854;9.158;2023-06-04T12:22:24;26.90;48.90
14016;DHT22;7083;48.854;9.158;2023-06-04T12:24:53;26.90;49.50
14016;DHT22;7083;48.854;9.158;2023-06-04T12:27:23;27.10;50.60
14016;DHT22;7083;48.854;9.158;2023-06-04T12:29:57;27.30;49.50
14016;DHT22;7083;48.854;9.158;2023-06-04T12:32:24;27.40;49.20
14016;DHT22;7083;48.854;9.158;2023-06-04T12:34:51;27.70;49.60
14016;DHT22;7083;48.854;9.158;2023-06-04T12:37:18;28.00;49.40
14016;DHT22;7083;48.854;9.158;2023-06-04T12:39:45;28.40;48.40
14016;DHT22;7083;48.854;9.158;2023-06-04T12:42:12;28.70;48.30
14016;DHT22;7083;48.854;9.158;2023-06-04T12:47:07;28.90;47.10
14016;DHT22;7083;48.854;9.158;2023-06-04T12:49:34;29.80;46.50
14016;DHT22;7083;48.854;9.158;2023-06-04T12:52:01;30.70;45.90
14016;DHT22;7083;48.854;9.158;2023-06-04T12:54:27;31.80;43.90
14016;DHT22;7083;48.854;9.158;2023-06-04T12:56:55;33.10;42.10
14016;DHT22;7083;48.854;9.158;2023-06-04T13:09:12;33.90;40.00
14016;DHT22;7083;48.854;9.158;2023-06-04T13:11:40;36.00;35.60
14016;DHT22;7083;48.854;9.158;2023-06-04T13:14:08;36.20;37.60
14016;DHT22;7083;48.854;9.158;2023-06-04T13:21:30;36.60;34.90
14016;DHT22;7083;48.854;9.158;2023-06-04T13:23:57;38.50;35.90
14016;DHT22;7083;48.854;9.158;2023-06-04T13:26:24;38.90;35.10
14016;DHT22;7083;48.854;9.158;2023-06-04T13:28:51;39.30;33.60
14016;DHT22;7083;48.854;9.158;2023-06-04T13:31:17;39.80;34.60
14016;DHT22;7083;48.854;9.158;2023-06-04T13:43:35;41.40;30.50
14016;DHT22;7083;48.854;9.158;2023-06-04T13:48:31;41.40;32.50
14016;DHT22;7083;48.854;9.158;2023-06-04T13:50:57;41.50;32.70
14016;DHT22;7083;48.854;9.158;2023-06-04T13:55:52;41.50;30.50
14016;DHT22;7083;48.854;9.158;2023-06-04T13:58:23;41.70;29.80
14016;DHT22;7083;48.854;9.158;2023-06-04T14:00:50;42.20;29.50
14016;DHT22;7083;48.854;9.158;2023-06-04T14:03:17;42.20;30.60
14016;DHT22;7083;48.854;9.158;2023-06-04T14:05:43;42.00;29.30
14016;DHT22;7083;48.854;9.158;2023-06-04T14:08:10;42.20;32.80
14016;DHT22;7083;48.854;9.158;2023-06-04T14:10:39;42.40;32.00
14016;DHT22;7083;48.854;9.158;2023-06-04T14:13:08;42.90;30.00
14016;DHT22;7083;48.854;9.158;2023-06-04T14:15:35;42.60;30.60
14016;DHT22;7083;48.854;9.158;2023-06-04T14:18:02;42.10;29.00
14016;DHT22;7083;48.854;9.158;2023-06-04T14:20:29;40.90;30.80
14016;DHT22;7083;48.854;9.158;2023-06-04T14:22:56;39.90;32.30
14016;DHT22;7083;48.854;9.158;2023-06-04T14:25:23;38.90;35.50
14016;DHT22;7083;48.854;9.158;2023-06-04T14:27:50;37.90;33.30
14016;DHT22;7083;48.854;9.158;2023-06-04T14:30:17;36.40;36.80
14016;DHT22;7083;48.854;9.158;2023-06-04T14:32:44;35.20;36.50
14016;DHT22;7083;48.854;9.158;2023-06-04T14:35:10;34.60;33.80
14016;DHT22;7083;48.854;9.158;2023-06-04T14:37:38;35.10;35.60
14016;DHT22;7083;48.854;9.158;2023-06-04T14:40:05;35.70;38.20
14016;DHT22;7083;48.854;9.158;2023-06-04T14:42:32;36.40;36.10
14016;DHT22;7083;48.854;9.158;2023-06-04T14:45:00;36.60;33.70
14016;DHT22;7083;48.854;9.158;2023-06-04T14:47:26;37.60;34.70
14016;DHT22;7083;48.854;9.158;2023-06-04T14:49:53;38.00;33.10
14016;DHT22;7083;48.854;9.158;2023-06-04T14:52:20;38.30;35.10
14016;DHT22;7083;48.854;9.158;2023-06-04T14:54:46;39.30;31.30
14016;DHT22;7083;48.854;9.158;2023-06-04T14:57:13;39.90;30.30
14016;DHT22;7083;48.854;9.158;2023-06-04T14:59:41;39.90;32.20
14016;DHT22;7083;48.854;9.158;2023-06-04T15:02:10;40.40;30.80
14016;DHT22;7083;48.854;9.158;2023-06-04T15:04:36;40.90;33.00
14016;DHT22;7083;48.854;9.158;2023-06-04T15:07:07;41.30;32.90
14016;DHT22;7083;48.854;9.158;2023-06-04T15:09:34;42.00;31.70
14016;DHT22;7083;48.854;9.158;2023-06-04T15:12:00;42.30;32.30
14016;DHT22;7083;48.854;9.158;2023-06-04T15:14:27;42.00;30.20
14016;DHT22;7083;48.854;9.158;2023-06-04T15:16:54;41.80;28.90
14016;DHT22;7083;48.854;9.158;2023-06-04T15:19:22;42.00;28.80
14016;DHT22;7083;48.854;9.158;2023-06-04T15:21:48;42.40;29.80
14016;DHT22;7083;48.854;9.158;2023-06-04T15:24:15;42.50;29.30
14016;DHT22;7083;48.854;9.158;2023-06-04T15:26:42;42.50;28.40
14016;DHT22;7083;48.854;9.158;2023-06-04T15:29:09;42.80;28.90
14016;DHT22;7083;48.854;9.158;2023-06-04T15:31:36;42.80;27.90
14016;DHT22;7083;48.854;9.158;2023-06-04T15:34:03;42.80;27.90
14016;DHT22;7083;48.854;9.158;2023-06-04T15:36:30;42.80;29.40
14016;DHT22;7083;48.854;9.158;2023-06-04T15:38:57;42.90;27.90
14016;DHT22;7083;48.854;9.158;2023-06-04T15:41:24;43.10;29.10
14016;DHT22;7083;48.854;9.158;2023-06-04T15:43:51;43.40;28.60
14016;DHT22;7083;48.854;9.158;2023-06-04T15:46:18;43.50;28.70
14016;DHT22;7083;48.854;9.158;2023-06-04T15:48:45;43.40;31.10
14016;DHT22;7083;48.854;9.158;2023-06-04T15:51:11;43.40;30.30
14016;DHT22;7083;48.854;9.158;2023-06-04T15:53:39;43.80;28.80
14016;DHT22;7083;48.854;9.158;2023-06-04T15:56:06;43.60;29.00
14016;DHT22;7083;48.854;9.158;2023-06-04T15:58:33;43.80;29.20
14016;DHT22;7083;48.854;9.158;2023-06-04T16:01:00;43.60;29.80
14016;DHT22;7083;48.854;9.158;2023-06-04T16:03:26;43.60;28.00
14016;DHT22;7083;48.854;9.158;2023-06-04T16:05:53;43.10;29.00
14016;DHT22;7083;48.854;9.158;2023-06-04T16:08:20;42.70;28.90
14016;DHT22;7083;48.854;9.158;2023-06-04T16:10:48;42.30;29.80
14016;DHT22;7083;48.854;9.158;2023-06-04T16:13:15;41.40;33.00
14016;DHT22;7083;48.854;9.158;2023-06-04T16:15:42;41.10;30.90
14016;DHT22;7083;48.854;9.158;2023-06-04T16:18:08;41.00;31.20
14016;DHT22;7083;48.854;9.158;2023-06-04T16:20:35;41.00;28.50
14016;DHT22;7083;48.854;9.158;2023-06-04T16:23:02;41.00;29.20